createdAt,value
2019-02-21T00:00:07.091Z,25.00
2019-02-21T00:01:06.994Z,25.60
2019-02-21T00:03:00.508Z,29.20
2019-02-21T00:04:00.092Z,26.70
2019-02-21T00:05:53.487Z,27.40
2019-02-21T00:06:53.462Z,26.70
2019-02-21T00:08:47.037Z,28.80
2019-02-21T00:09:46.793Z,27.60
2019-02-21T00:11:40.407Z,26.90
2019-02-21T00:12:40.182Z,28.80
2019-02-21T00:14:33.697Z,27.60
2019-02-21T00:15:33.528Z,26.30
2019-02-21T00:17:26.879Z,27.30
2019-02-21T00:18:26.856Z,29.10
2019-02-21T00:20:20.667Z,29.30
2019-02-21T00:21:20.491Z,28.00
2019-02-21T00:23:13.827Z,29.70
2019-02-21T00:24:13.771Z,30.80
2019-02-21T00:26:07.186Z,30.90
2019-02-21T00:27:07.163Z,31.00
2019-02-21T00:29:00.510Z,29.90
2019-02-21T00:30:00.483Z,32.00
2019-02-21T00:31:54.131Z,32.60
2019-02-21T00:32:53.640Z,32.60
2019-02-21T00:34:47.188Z,36.40
2019-02-21T00:35:47.205Z,36.30
2019-02-21T00:37:40.573Z,37.70
2019-02-21T00:38:40.563Z,36.90
2019-02-21T00:40:33.888Z,37.10
2019-02-21T00:41:33.698Z,40.10
2019-02-21T00:43:27.515Z,39.10
2019-02-21T00:44:27.297Z,42.40
2019-02-21T00:46:20.625Z,42.40
2019-02-21T00:47:20.390Z,45.10
2019-02-21T00:49:14.231Z,48.30
2019-02-21T00:50:13.706Z,49.70
2019-02-21T00:52:07.128Z,50.70
2019-02-21T00:53:07.293Z,55.00
2019-02-21T00:55:00.969Z,49.30
2019-02-21T00:56:00.638Z,50.60
2019-02-21T00:57:54.618Z,48.60
2019-02-21T00:58:54.637Z,47.70
2019-02-21T01:00:47.986Z,46.50
2019-02-21T01:01:47.929Z,52.60
2019-02-21T01:03:41.343Z,54.70
2019-02-21T01:04:41.057Z,49.10
2019-02-21T01:06:34.589Z,49.30
2019-02-21T01:07:34.391Z,47.60
2019-02-21T01:09:28.067Z,46.90
2019-02-21T01:10:27.949Z,47.10
2019-02-21T01:12:20.755Z,52.20
2019-02-21T01:13:20.793Z,55.10
2019-02-21T01:15:13.953Z,51.70
2019-02-21T01:18:07.483Z,46.20
2019-02-21T01:19:07.250Z,45.50
2019-02-21T01:21:00.629Z,47.40
2019-02-21T01:22:00.623Z,46.80
2019-02-21T01:23:54.247Z,46.70
2019-02-21T01:24:54.248Z,45.70
2019-02-21T01:26:47.467Z,47.70
2019-02-21T01:27:47.333Z,47.30
2019-02-21T01:29:40.890Z,56.50
2019-02-21T01:30:40.722Z,61.20
2019-02-21T01:32:34.340Z,62.70
2019-02-21T01:33:34.036Z,63.80
2019-02-21T01:35:27.877Z,64.80
2019-02-21T01:36:27.632Z,63.60
2019-02-21T01:38:20.759Z,57.10
2019-02-21T01:39:21.038Z,60.50
2019-02-21T01:41:14.566Z,57.40
2019-02-21T01:42:14.084Z,59.30
2019-02-21T01:44:07.475Z,62.50
2019-02-21T01:45:07.724Z,62.50
2019-02-21T01:47:01.310Z,62.70
2019-02-21T01:48:00.773Z,64.30
2019-02-21T01:49:54.415Z,60.50
2019-02-21T01:50:54.420Z,57.50
2019-02-21T01:52:47.931Z,60.30
2019-02-21T01:53:47.701Z,54.10
2019-02-21T01:55:40.859Z,51.00
2019-02-21T01:56:41.050Z,53.20
2019-02-21T01:58:34.489Z,52.60
2019-02-21T01:59:34.419Z,48.00
2019-02-21T02:01:27.767Z,49.70
2019-02-21T02:02:27.735Z,54.10
2019-02-21T02:04:21.347Z,52.20
2019-02-21T02:05:20.854Z,50.30
2019-02-21T02:08:46.649Z,51.80
2019-02-21T02:09:46.563Z,52.10
2019-02-21T02:11:40.094Z,52.70
2019-02-21T02:12:39.863Z,52.50
2019-02-21T02:14:32.976Z,51.60
2019-02-21T02:15:33.022Z,54.30
2019-02-21T02:17:26.672Z,50.10
2019-02-21T02:18:26.543Z,47.40
2019-02-21T02:20:19.708Z,51.20
2019-02-21T02:21:19.703Z,51.10
2019-02-21T02:23:21.007Z,48.80
2019-02-21T02:27:07.334Z,51.20
2019-02-21T02:29:00.146Z,48.40
2019-02-21T02:30:00.008Z,49.20
2019-02-21T02:31:53.102Z,47.30
2019-02-21T02:32:53.295Z,47.90
2019-02-21T02:34:47.786Z,48.20
2019-02-21T02:35:46.451Z,48.70
2019-02-21T02:37:39.903Z,46.70
2019-02-21T02:40:33.449Z,45.80
2019-02-21T02:41:33.154Z,46.50
2019-02-21T02:43:26.776Z,46.70
2019-02-21T02:44:26.730Z,44.00
2019-02-21T02:46:20.145Z,42.70
2019-02-21T02:47:20.100Z,42.70
2019-02-21T02:49:13.437Z,44.00
2019-02-21T02:50:13.159Z,42.40
2019-02-21T02:52:06.790Z,42.20
2019-02-21T02:53:06.755Z,42.60
2019-02-21T02:54:59.389Z,37.70
2019-02-21T02:55:59.635Z,37.40
2019-02-21T02:57:52.955Z,36.80
2019-02-21T02:58:52.976Z,35.80
2019-02-21T03:00:46.965Z,32.40
2019-02-21T03:01:46.655Z,35.60
2019-02-21T03:03:39.396Z,35.50
2019-02-21T03:04:38.988Z,36.60
2019-02-21T03:06:32.397Z,37.70
2019-02-21T03:07:32.587Z,36.70
2019-02-21T03:09:26.249Z,36.50
2019-02-21T03:10:25.647Z,35.50
2019-02-21T03:12:19.090Z,34.70
2019-02-21T03:13:19.207Z,36.20
2019-02-21T03:15:12.896Z,33.50
2019-02-21T03:16:12.350Z,32.80
2019-02-21T03:18:05.969Z,33.50
2019-02-21T03:19:05.722Z,33.40
2019-02-21T03:20:59.363Z,34.80
2019-02-21T03:21:59.336Z,33.70
2019-02-21T03:23:52.778Z,32.80
2019-02-21T03:24:52.457Z,34.20
2019-02-21T03:26:45.988Z,31.20
2019-02-21T03:27:46.174Z,32.40
2019-02-21T03:29:38.800Z,28.40
2019-02-21T03:30:38.700Z,27.90
2019-02-21T03:32:32.211Z,26.50
2019-02-21T03:33:32.273Z,26.70
2019-02-21T03:35:25.425Z,23.20
2019-02-21T03:36:25.650Z,23.20
2019-02-21T03:39:18.255Z,26.30
2019-02-21T03:41:11.131Z,23.50
2019-02-21T03:42:11.387Z,24.80
2019-02-21T03:44:04.742Z,25.40
2019-02-21T03:45:04.467Z,24.50
2019-02-21T03:46:57.790Z,23.50
2019-02-21T03:49:30.368Z,25.00
2019-02-21T03:50:29.835Z,22.60
2019-02-21T03:52:23.541Z,23.70
2019-02-21T03:53:23.488Z,23.50
2019-02-21T03:55:16.793Z,22.20
2019-02-21T03:56:16.613Z,22.10
2019-02-21T03:58:09.949Z,23.20
2019-02-21T03:59:09.926Z,22.70
2019-02-21T04:01:04.762Z,21.50
2019-02-21T04:02:05.654Z,21.50
2019-02-21T04:04:17.677Z,25.00
2019-02-21T04:04:57.709Z,25.10
2019-02-21T04:06:51.286Z,23.90
2019-02-21T04:07:51.095Z,23.50
2019-02-21T04:09:44.590Z,25.10
2019-02-21T04:10:44.458Z,25.00
2019-02-21T04:12:50.758Z,23.80
2019-02-21T04:13:37.800Z,22.60
2019-02-21T04:15:30.979Z,19.90
2019-02-21T04:16:31.196Z,21.90
2019-02-21T04:18:24.725Z,22.20
2019-02-21T04:19:24.496Z,22.20
2019-02-21T04:21:17.869Z,21.40
2019-02-21T04:22:17.889Z,21.30
2019-02-21T04:24:11.457Z,23.20
2019-02-21T04:25:11.271Z,22.20
2019-02-21T04:27:04.597Z,21.20
2019-02-21T04:28:04.331Z,21.60
2019-02-21T04:29:58.126Z,21.70
2019-02-21T04:30:57.936Z,21.20
2019-02-21T04:32:51.122Z,20.10
2019-02-21T04:33:51.020Z,19.50
2019-02-21T04:35:44.843Z,19.90
2019-02-21T04:36:44.490Z,19.20
2019-02-21T04:38:37.776Z,19.00
2019-02-21T04:39:38.014Z,19.70
2019-02-21T04:41:31.296Z,19.30
2019-02-21T04:42:31.133Z,17.70
2019-02-21T04:44:26.091Z,17.10
2019-02-21T04:45:24.719Z,16.80
2019-02-21T04:47:18.133Z,17.50
2019-02-21T04:48:17.908Z,16.30
2019-02-21T04:50:11.578Z,16.10
2019-02-21T04:53:05.065Z,17.40
2019-02-21T04:54:04.821Z,16.30
2019-02-21T04:55:58.261Z,17.10
2019-02-21T04:56:58.201Z,16.90
2019-02-21T04:58:51.835Z,17.60
2019-02-21T04:59:51.346Z,17.90
2019-02-21T05:01:44.752Z,18.60
2019-02-21T05:02:45.016Z,18.90
2019-02-21T05:04:38.524Z,18.90
2019-02-21T05:05:38.070Z,20.90
2019-02-21T05:07:31.414Z,17.30
2019-02-21T05:08:31.398Z,17.60
2019-02-21T05:10:25.227Z,19.50
2019-02-21T05:12:56.815Z,19.40
2019-02-21T05:13:56.835Z,20.60
2019-02-21T05:15:50.604Z,26.70
2019-02-21T05:16:50.375Z,26.20
2019-02-21T05:18:43.847Z,23.60
2019-02-21T05:19:43.790Z,25.00
2019-02-21T05:21:37.306Z,23.10
2019-02-21T05:22:37.102Z,24.20
2019-02-21T05:24:30.232Z,24.10
2019-02-21T05:25:30.183Z,22.90
2019-02-21T05:27:23.796Z,22.50
2019-02-21T05:28:23.608Z,22.00
2019-02-21T05:30:16.951Z,22.40
2019-02-21T05:31:17.166Z,21.60
2019-02-21T05:33:10.777Z,24.80
2019-02-21T05:34:10.297Z,24.00
2019-02-21T05:36:03.749Z,22.70
2019-02-21T05:37:03.611Z,23.20
2019-02-21T05:38:57.488Z,22.80
2019-02-21T05:39:56.981Z,24.10
2019-02-21T05:41:50.354Z,24.80
2019-02-21T05:44:22.865Z,22.90
2019-02-21T05:45:22.574Z,23.70
2019-02-21T05:47:15.967Z,23.70
2019-02-21T05:48:15.971Z,22.50
2019-02-21T05:50:09.313Z,21.70
2019-02-21T05:51:09.299Z,21.80
2019-02-21T05:53:02.660Z,21.60
2019-02-21T05:54:02.434Z,20.60
2019-02-21T05:56:17.288Z,22.00
2019-02-21T05:56:56.028Z,22.60
2019-02-21T05:58:49.350Z,22.60
2019-02-21T05:59:49.119Z,23.90
2019-02-21T06:01:43.049Z,21.30
2019-02-21T06:02:53.092Z,23.60
2019-02-21T06:06:07.942Z,23.10
2019-02-21T06:09:01.662Z,23.20
2019-02-21T06:10:01.425Z,22.50
2019-02-21T06:11:54.816Z,21.50
2019-02-21T06:12:54.584Z,21.60
2019-02-21T06:14:48.352Z,18.50
2019-02-21T06:15:48.179Z,20.10
2019-02-21T06:17:41.388Z,21.10
2019-02-21T06:18:41.049Z,20.70
2019-02-21T06:20:34.390Z,19.40
2019-02-21T06:21:34.154Z,20.40
2019-02-21T06:23:27.565Z,20.10
2019-02-21T06:24:27.519Z,19.40
2019-02-21T06:26:21.015Z,22.30
2019-02-21T06:27:21.093Z,20.60
2019-02-21T06:29:14.210Z,20.30
2019-02-21T06:30:14.454Z,21.00
2019-02-21T06:32:14.161Z,21.80
2019-02-21T06:33:07.056Z,21.30
2019-02-21T06:35:02.696Z,22.70
2019-02-21T06:36:00.627Z,21.20
2019-02-21T06:37:53.947Z,20.80
2019-02-21T06:38:53.960Z,22.20
2019-02-21T06:40:47.367Z,22.00
2019-02-21T06:41:47.117Z,21.30
2019-02-21T06:43:40.163Z,19.90
2019-02-21T06:44:40.207Z,22.00
2019-02-21T06:46:33.635Z,21.70
2019-02-21T06:47:33.292Z,19.90
2019-02-21T06:49:32.446Z,21.60
2019-02-21T06:50:27.345Z,23.10
2019-02-21T06:52:20.240Z,22.10
2019-02-21T06:53:20.270Z,21.00
2019-02-21T06:55:13.602Z,23.60
2019-02-21T06:56:13.624Z,22.90
2019-02-21T06:58:06.775Z,23.50
2019-02-21T07:01:00.568Z,23.80
2019-02-21T07:02:00.073Z,23.80
2019-02-21T07:05:26.046Z,20.90
2019-02-21T07:06:32.013Z,23.00
2019-02-21T07:08:19.685Z,22.40
2019-02-21T07:09:19.622Z,23.40
2019-02-21T07:11:13.005Z,21.50
2019-02-21T07:12:12.989Z,22.60
2019-02-21T07:14:06.584Z,24.00
2019-02-21T07:15:06.326Z,24.20
2019-02-21T07:16:59.480Z,23.50
2019-02-21T07:17:59.713Z,21.20
2019-02-21T07:19:53.152Z,22.10
2019-02-21T07:20:53.079Z,21.70
2019-02-21T07:22:46.321Z,24.10
2019-02-21T07:23:46.457Z,22.40
2019-02-21T07:25:39.339Z,21.00
2019-02-21T07:26:39.298Z,20.90
2019-02-21T07:28:32.749Z,23.30
2019-02-21T07:29:32.641Z,23.30
2019-02-21T07:31:29.164Z,24.90
2019-02-21T07:32:25.965Z,26.10
2019-02-21T07:34:19.323Z,26.30
2019-02-21T07:35:19.134Z,25.70
2019-02-21T07:37:18.525Z,26.50
2019-02-21T07:38:12.727Z,25.40
2019-02-21T07:40:05.797Z,24.70
2019-02-21T07:41:05.856Z,26.10
2019-02-21T07:42:59.423Z,27.10
2019-02-21T07:43:59.454Z,26.80
2019-02-21T07:45:52.771Z,25.20
2019-02-21T07:46:53.427Z,27.00
2019-02-21T07:48:46.029Z,29.50
2019-02-21T07:49:46.067Z,29.30
2019-02-21T07:51:41.398Z,26.80
2019-02-21T07:52:40.062Z,26.60
2019-02-21T07:54:33.065Z,25.50
2019-02-21T07:55:32.803Z,25.90
2019-02-21T07:57:26.171Z,23.70
2019-02-21T07:58:25.955Z,26.40
2019-02-21T08:00:19.609Z,25.20
2019-02-21T08:01:19.477Z,25.20
2019-02-21T08:03:12.203Z,24.30
2019-02-21T08:04:12.350Z,24.40
2019-02-21T08:06:06.047Z,23.90
2019-02-21T08:07:05.504Z,23.00
2019-02-21T08:08:59.725Z,23.10
2019-02-21T08:09:58.875Z,21.30
2019-02-21T08:11:52.497Z,22.20
2019-02-21T08:14:56.377Z,21.50
2019-02-21T08:15:27.199Z,21.10
2019-02-21T08:17:18.195Z,19.80
2019-02-21T08:18:17.776Z,20.40
2019-02-21T08:20:11.726Z,22.10
2019-02-21T08:21:11.519Z,20.80
2019-02-21T08:23:03.687Z,19.80
2019-02-21T08:24:03.448Z,19.70
2019-02-21T08:25:57.004Z,20.70
2019-02-21T08:26:56.771Z,19.90
2019-02-21T08:28:54.774Z,19.60
2019-02-21T08:29:50.394Z,19.70
2019-02-21T08:31:44.559Z,233.70
2019-02-21T08:32:43.576Z,122.40
2019-02-21T08:34:37.179Z,66.00
2019-02-21T08:35:36.931Z,71.90
2019-02-21T08:37:30.559Z,55.20
2019-02-21T08:38:30.578Z,52.80
2019-02-21T08:40:25.257Z,43.40
2019-02-21T08:41:25.822Z,39.90
2019-02-21T08:44:50.255Z,34.70
2019-02-21T08:45:49.903Z,36.10
2019-02-21T08:47:43.728Z,31.10
2019-02-21T08:48:43.244Z,30.10
2019-02-21T08:50:36.629Z,26.20
2019-02-21T08:51:36.834Z,27.70
2019-02-21T08:53:30.331Z,24.20
2019-02-21T08:54:30.194Z,23.50
2019-02-21T08:56:23.565Z,22.60
2019-02-21T08:57:23.296Z,22.90
2019-02-21T08:59:16.828Z,20.30
2019-02-21T09:00:16.870Z,19.30
2019-02-21T09:02:10.203Z,19.80
2019-02-21T09:03:10.219Z,19.90
2019-02-21T09:05:03.505Z,20.10
2019-02-21T09:06:03.530Z,18.90
2019-02-21T09:07:56.870Z,17.40
2019-02-21T09:08:56.903Z,20.20
2019-02-21T09:10:50.454Z,18.00
2019-02-21T09:13:43.641Z,18.30
2019-02-21T09:14:43.374Z,18.50
2019-02-21T09:16:37.152Z,17.30
2019-02-21T09:19:08.786Z,16.90
2019-02-21T09:20:08.992Z,16.40
2019-02-21T09:22:02.368Z,16.10
2019-02-21T09:23:02.088Z,14.70
2019-02-21T09:24:55.676Z,15.20
2019-02-21T09:28:10.389Z,15.50
2019-02-21T09:28:49.055Z,15.00
2019-02-21T09:30:42.432Z,15.00
2019-02-21T09:31:42.141Z,14.30
2019-02-21T09:33:37.281Z,12.60
2019-02-21T09:34:35.778Z,13.70
2019-02-21T09:36:28.909Z,14.00
2019-02-21T09:37:29.108Z,13.00
2019-02-21T09:39:22.666Z,14.50
2019-02-21T09:40:22.449Z,13.80
2019-02-21T09:42:15.900Z,12.50
2019-02-21T09:43:15.577Z,12.40
2019-02-21T09:45:09.407Z,12.50
2019-02-21T09:46:09.150Z,12.40
2019-02-21T09:48:02.542Z,12.40
2019-02-21T09:49:02.978Z,12.30
2019-02-21T09:50:55.775Z,11.60
2019-02-21T09:51:55.803Z,12.40
2019-02-21T09:53:49.385Z,10.90
2019-02-21T09:54:48.958Z,12.60
2019-02-21T09:56:52.279Z,13.10
2019-02-21T09:57:42.272Z,12.70
2019-02-21T09:59:35.916Z,13.00
2019-02-21T10:00:36.054Z,12.30
2019-02-21T10:02:29.218Z,11.40
2019-02-21T10:03:28.966Z,11.60
2019-02-21T10:05:22.576Z,10.50
2019-02-21T10:06:22.354Z,11.30
2019-02-21T10:08:15.950Z,10.50
2019-02-21T10:09:15.664Z,10.80
2019-02-21T10:11:11.367Z,10.10
2019-02-21T10:12:09.072Z,10.70
2019-02-21T10:14:02.638Z,11.30
2019-02-21T10:15:02.591Z,10.20
2019-02-21T10:16:55.269Z,9.80
2019-02-21T10:17:55.242Z,10.40
2019-02-21T10:19:49.110Z,9.80
2019-02-21T10:20:48.645Z,10.40
2019-02-21T10:22:42.196Z,10.00
2019-02-21T10:23:42.253Z,10.50
2019-02-21T10:25:35.486Z,9.40
2019-02-21T10:26:35.550Z,9.80
2019-02-21T10:28:28.656Z,9.90
2019-02-21T10:29:29.817Z,10.30
2019-02-21T10:31:22.492Z,10.00
2019-02-21T10:32:22.243Z,9.90
2019-02-21T10:34:15.605Z,10.90
2019-02-21T10:35:15.605Z,10.70
2019-02-21T10:37:09.148Z,9.90
2019-02-21T10:38:08.722Z,9.40
2019-02-21T10:40:02.422Z,10.10
2019-02-21T10:41:02.072Z,9.90
2019-02-21T10:42:55.833Z,9.60
2019-02-21T10:43:55.433Z,9.90
2019-02-21T10:45:48.738Z,10.70
2019-02-21T10:46:48.732Z,9.80
2019-02-21T10:48:42.355Z,9.70
2019-02-21T10:49:42.330Z,9.80
2019-02-21T10:51:35.702Z,10.00
2019-02-21T10:52:35.463Z,8.80
2019-02-21T10:54:29.048Z,11.50
2019-02-21T10:55:29.152Z,9.40
2019-02-21T10:57:21.918Z,10.40
2019-02-21T10:58:21.678Z,11.20
2019-02-21T11:00:15.208Z,12.10
2019-02-21T11:01:15.269Z,11.40
2019-02-21T11:03:08.370Z,11.90
2019-02-21T11:04:08.609Z,12.20
2019-02-21T11:06:02.460Z,10.50
2019-02-21T11:07:02.537Z,10.50
2019-02-21T11:08:55.820Z,11.70
2019-02-21T11:09:55.564Z,12.00
2019-02-21T11:11:49.129Z,13.10
2019-02-21T11:12:48.915Z,12.10
2019-02-21T11:14:47.407Z,12.70
2019-02-21T11:15:42.481Z,12.60
2019-02-21T11:17:35.854Z,13.10
2019-02-21T11:18:35.857Z,13.90
2019-02-21T11:20:29.219Z,12.30
2019-02-21T11:21:29.180Z,12.50
2019-02-21T11:23:22.784Z,12.70
2019-02-21T11:24:22.568Z,13.40
2019-02-21T11:26:15.942Z,15.30
2019-02-21T11:27:15.866Z,15.30
2019-02-21T11:29:09.173Z,14.30
2019-02-21T11:30:09.231Z,13.00
2019-02-21T11:32:02.095Z,14.00
2019-02-21T11:33:01.885Z,13.30
2019-02-21T11:35:05.507Z,13.40
2019-02-21T11:35:55.247Z,13.60
2019-02-21T11:37:48.795Z,12.60
2019-02-21T11:38:48.558Z,12.90
2019-02-21T11:40:42.129Z,13.60
2019-02-21T11:41:41.947Z,12.50
2019-02-21T11:43:35.530Z,14.40
2019-02-21T11:44:35.483Z,13.90
2019-02-21T11:46:29.006Z,15.10
2019-02-21T11:47:28.624Z,14.70
2019-02-21T11:49:22.205Z,16.00
2019-02-21T11:50:21.964Z,16.20
2019-02-21T11:52:15.759Z,14.80
2019-02-21T11:53:15.318Z,17.30
2019-02-21T11:55:08.676Z,16.40
2019-02-21T11:56:08.850Z,13.90
2019-02-21T11:58:02.473Z,14.40
2019-02-21T11:59:02.210Z,14.60
2019-02-21T12:00:55.567Z,15.50
2019-02-21T12:01:55.332Z,16.10
2019-02-21T12:03:48.926Z,15.60
2019-02-21T12:04:48.668Z,16.50
2019-02-21T12:06:42.030Z,15.50
2019-02-21T12:07:42.016Z,15.60
2019-02-21T12:09:35.884Z,15.10
2019-02-21T12:10:35.611Z,15.70
2019-02-21T12:12:28.519Z,16.50
2019-02-21T12:13:28.221Z,15.90
2019-02-21T12:15:21.323Z,15.70
2019-02-21T12:16:21.091Z,17.20
2019-02-21T12:18:14.454Z,15.80
2019-02-21T12:19:14.737Z,16.10
2019-02-21T12:21:08.082Z,17.90
2019-02-21T12:22:07.844Z,17.40
2019-02-21T12:24:01.146Z,15.70
2019-02-21T12:25:01.375Z,16.60
2019-02-21T12:26:54.717Z,16.80
2019-02-21T12:27:54.757Z,16.70
2019-02-21T12:29:47.843Z,18.30
2019-02-21T12:30:47.826Z,18.20
2019-02-21T12:32:41.648Z,17.50
2019-02-21T12:33:41.444Z,16.60
2019-02-21T12:35:34.762Z,16.40
2019-02-21T12:36:34.773Z,16.70
2019-02-21T12:38:28.403Z,17.60
2019-02-21T12:39:28.097Z,14.90
2019-02-21T12:41:21.450Z,16.20
2019-02-21T12:42:21.491Z,15.90
2019-02-21T12:44:15.034Z,18.40
2019-02-21T12:45:14.819Z,18.80
2019-02-21T12:47:08.157Z,18.30
2019-02-21T12:48:08.177Z,18.40
2019-02-21T12:50:01.481Z,18.10
2019-02-21T12:51:01.294Z,19.80
2019-02-21T12:52:54.906Z,19.30
2019-02-21T12:53:54.866Z,17.50
2019-02-21T12:55:48.158Z,16.90
2019-02-21T12:56:48.235Z,17.30
2019-02-21T12:58:41.312Z,16.90
2019-02-21T12:59:41.591Z,19.00
2019-02-21T13:01:34.865Z,18.00
2019-02-21T13:02:34.699Z,16.60
2019-02-21T13:04:28.047Z,16.30
2019-02-21T13:05:28.042Z,17.90
2019-02-21T13:07:22.065Z,17.20
2019-02-21T13:08:21.924Z,17.80
2019-02-21T13:10:15.500Z,18.90
2019-02-21T13:11:15.224Z,16.90
2019-02-21T13:13:09.071Z,18.70
2019-02-21T13:14:08.846Z,20.30
2019-02-21T13:16:02.184Z,18.20
2019-02-21T13:17:02.185Z,17.50
2019-02-21T13:18:55.715Z,20.80
2019-02-21T13:19:55.303Z,18.70
2019-02-21T13:21:48.880Z,19.30
2019-02-21T13:22:48.661Z,21.20
2019-02-21T13:24:42.435Z,20.80
2019-02-21T13:25:42.222Z,20.30
2019-02-21T13:27:34.874Z,21.80
2019-02-21T13:28:35.070Z,19.90
2019-02-21T13:30:28.684Z,18.50
2019-02-21T13:31:28.482Z,20.10
2019-02-21T13:33:21.814Z,19.60
2019-02-21T13:34:21.585Z,21.60
2019-02-21T13:36:15.368Z,18.90
2019-02-21T13:37:15.116Z,18.70
2019-02-21T13:39:08.485Z,21.00
2019-02-21T13:40:08.272Z,19.40
2019-02-21T13:42:02.093Z,20.00
2019-02-21T13:43:01.619Z,18.70
2019-02-21T13:44:54.934Z,20.20
2019-02-21T13:45:55.192Z,20.20
2019-02-21T13:47:48.586Z,18.90
2019-02-21T13:48:48.270Z,21.00
2019-02-21T13:50:41.920Z,20.80
2019-02-21T13:51:41.861Z,19.70
2019-02-21T13:53:35.452Z,20.80
2019-02-21T13:54:35.257Z,19.60
2019-02-21T13:56:28.587Z,17.90
2019-02-21T13:57:28.550Z,19.50
2019-02-21T13:59:22.153Z,17.20
2019-02-21T14:00:21.710Z,18.60
2019-02-21T14:02:15.432Z,19.90
2019-02-21T14:03:15.292Z,18.80
2019-02-21T14:05:08.555Z,18.30
2019-02-21T14:06:08.636Z,18.40
2019-02-21T14:08:01.712Z,18.70
2019-02-21T14:09:01.938Z,19.30
2019-02-21T14:10:55.565Z,19.50
2019-02-21T14:11:55.077Z,18.60
2019-02-21T14:13:48.622Z,19.10
2019-02-21T14:14:48.675Z,18.20
2019-02-21T14:16:46.694Z,19.50
2019-02-21T14:17:41.723Z,18.80
2019-02-21T14:19:35.375Z,22.00
2019-02-21T14:20:44.874Z,21.10
2019-02-21T14:22:28.624Z,21.70
2019-02-21T14:23:28.686Z,24.00
2019-02-21T14:25:22.001Z,22.50
2019-02-21T14:26:21.798Z,22.90
2019-02-21T14:28:15.615Z,20.80
2019-02-21T14:29:15.153Z,21.20
2019-02-21T14:31:08.687Z,22.30
2019-02-21T14:32:08.496Z,20.20
2019-02-21T14:34:02.018Z,22.30
2019-02-21T14:35:02.063Z,19.90
2019-02-21T14:36:55.192Z,20.70
2019-02-21T14:37:55.142Z,24.40
2019-02-21T14:39:48.727Z,23.20
2019-02-21T14:40:48.528Z,22.20
2019-02-21T14:42:41.894Z,22.10
2019-02-21T14:43:41.845Z,20.30
2019-02-21T14:45:35.454Z,21.10
2019-02-21T14:46:35.421Z,19.90
2019-02-21T14:48:28.535Z,19.80
2019-02-21T14:49:28.804Z,20.60
2019-02-21T14:51:22.336Z,21.30
2019-02-21T14:52:21.875Z,19.80
2019-02-21T14:54:16.498Z,20.80
2019-02-21T14:55:15.503Z,22.30
2019-02-21T14:57:09.036Z,20.40
2019-02-21T14:58:08.799Z,24.40
2019-02-21T15:00:02.151Z,22.70
2019-02-21T15:01:01.924Z,23.70
2019-02-21T15:02:57.618Z,21.60
2019-02-21T15:03:55.533Z,22.30
2019-02-21T15:05:48.860Z,23.50
2019-02-21T15:06:48.832Z,26.10
2019-02-21T15:08:42.993Z,23.40
2019-02-21T15:09:42.486Z,24.50
2019-02-21T15:11:35.875Z,23.50
2019-02-21T15:12:36.085Z,26.30
2019-02-21T15:14:29.684Z,24.40
2019-02-21T15:15:29.219Z,27.30
2019-02-21T15:17:22.532Z,26.90
2019-02-21T15:18:22.803Z,25.60
2019-02-21T15:20:16.358Z,25.80
2019-02-21T15:21:16.111Z,25.70
2019-02-21T15:23:09.339Z,26.90
2019-02-21T15:24:09.250Z,24.90
2019-02-21T15:26:03.205Z,26.40
2019-02-21T15:27:08.405Z,25.60
2019-02-21T15:28:55.941Z,27.30
2019-02-21T15:29:57.422Z,26.80
2019-02-21T15:31:49.765Z,23.40
2019-02-21T15:32:49.277Z,25.00
2019-02-21T15:34:42.667Z,23.60
2019-02-21T15:35:42.884Z,23.20
2019-02-21T15:37:36.409Z,25.70
2019-02-21T15:38:36.011Z,26.20
2019-02-21T15:40:29.349Z,24.90
2019-02-21T15:41:29.573Z,24.70
2019-02-21T15:43:23.080Z,24.20
2019-02-21T15:44:22.872Z,22.00
2019-02-21T15:46:16.241Z,25.00
2019-02-21T15:47:16.001Z,23.60
2019-02-21T15:49:09.933Z,24.80
2019-02-21T15:50:09.583Z,24.30
2019-02-21T15:52:02.949Z,24.40
2019-02-21T15:53:02.988Z,25.40
2019-02-21T15:54:56.500Z,24.70
2019-02-21T15:55:56.283Z,24.50
2019-02-21T15:57:49.670Z,24.40
2019-02-21T15:58:49.613Z,25.00
2019-02-21T16:00:43.173Z,26.80
2019-02-21T16:01:47.484Z,27.30
2019-02-21T16:03:36.123Z,25.50
2019-02-21T16:04:36.123Z,24.50
2019-02-21T16:06:29.923Z,27.10
2019-02-21T16:07:29.708Z,27.30
2019-02-21T16:09:25.133Z,25.90
2019-02-21T16:10:23.018Z,27.70
2019-02-21T16:12:16.886Z,28.80
2019-02-21T16:13:16.722Z,27.40
2019-02-21T16:30:31.666Z,27.40
2019-02-21T16:31:31.452Z,35.90
2019-02-21T16:33:23.531Z,37.50
2019-02-21T16:34:23.745Z,37.50
2019-02-21T16:36:16.130Z,37.00
2019-02-21T16:37:15.881Z,34.70
2019-02-21T16:39:08.221Z,34.00
2019-02-21T16:40:08.469Z,34.50
2019-02-21T16:42:00.825Z,34.20
2019-02-21T16:43:00.538Z,35.60
2019-02-21T16:44:52.927Z,32.90
2019-02-21T16:45:54.106Z,33.10
2019-02-21T16:47:45.705Z,31.30
2019-02-21T16:48:45.242Z,28.80
2019-02-21T16:50:37.648Z,28.60
2019-02-21T16:51:37.566Z,26.90
2019-02-21T16:53:30.197Z,27.10
2019-02-21T16:54:29.901Z,28.00
2019-02-21T16:56:22.257Z,27.70
2019-02-21T16:57:22.467Z,27.60
2019-02-21T16:59:15.102Z,30.20
2019-02-21T17:00:14.870Z,28.00
2019-02-21T17:02:06.952Z,28.10
2019-02-21T17:03:07.187Z,28.80
2019-02-21T17:04:59.478Z,27.20
2019-02-21T17:05:59.559Z,28.20
2019-02-21T17:07:51.867Z,27.10
2019-02-21T17:08:51.884Z,31.70
2019-02-21T17:10:44.176Z,29.10
2019-02-21T17:11:44.200Z,29.10
2019-02-21T17:13:36.339Z,29.80
2019-02-21T17:14:36.336Z,29.70
2019-02-21T17:16:29.145Z,28.20
2019-02-21T17:17:28.921Z,29.30
2019-02-21T17:19:21.267Z,28.80
2019-02-21T17:20:20.993Z,27.70
2019-02-21T17:22:13.804Z,29.60
2019-02-21T17:23:22.456Z,30.80
2019-02-21T17:25:05.926Z,27.30
2019-02-21T17:26:05.926Z,28.40
2019-02-21T17:27:58.456Z,27.80
2019-02-21T17:28:58.217Z,28.90
2019-02-21T17:30:50.627Z,26.90
2019-02-21T17:31:50.342Z,29.40
2019-02-21T17:33:43.221Z,27.40
2019-02-21T17:34:42.906Z,27.40
2019-02-21T17:36:35.291Z,28.50
2019-02-21T17:37:35.244Z,27.10
2019-02-21T17:39:27.849Z,26.70
2019-02-21T17:40:27.604Z,27.50
2019-02-21T17:42:19.707Z,27.40
2019-02-21T17:43:19.729Z,27.20
2019-02-21T17:45:12.537Z,27.50
2019-02-21T17:46:12.358Z,27.00
2019-02-21T17:48:04.437Z,29.20
2019-02-21T17:49:04.629Z,27.60
2019-02-21T17:50:57.180Z,29.50
2019-02-21T17:51:56.717Z,28.40
2019-02-21T17:53:49.105Z,28.40
2019-02-21T17:54:49.076Z,28.90
2019-02-21T17:56:41.903Z,27.90
2019-02-21T17:57:41.704Z,26.40
2019-02-21T17:59:34.012Z,26.80
2019-02-21T18:00:34.001Z,29.40
2019-02-21T18:02:26.561Z,26.10
2019-02-21T18:03:26.091Z,28.30
2019-02-21T18:05:18.673Z,31.20
2019-02-21T18:06:18.657Z,29.80
2019-02-21T18:08:10.996Z,31.50
2019-02-21T18:09:10.774Z,30.70
2019-02-21T18:11:03.430Z,31.10
2019-02-21T18:12:03.420Z,32.30
2019-02-21T18:13:55.702Z,30.40
2019-02-21T18:14:55.469Z,28.30
2019-02-21T18:16:47.822Z,29.50
2019-02-21T18:17:47.840Z,28.80
2019-02-21T18:19:40.620Z,27.90
2019-02-21T18:20:40.398Z,28.30
2019-02-21T18:22:32.543Z,27.70
2019-02-21T18:23:32.538Z,28.80
2019-02-21T18:25:25.043Z,26.60
2019-02-21T18:26:24.874Z,27.80
2019-02-21T18:28:17.433Z,26.00
2019-02-21T18:29:17.222Z,24.80
2019-02-21T18:31:10.528Z,25.20
2019-02-21T18:32:10.079Z,27.70
2019-02-21T18:34:02.364Z,27.70
2019-02-21T18:35:02.180Z,27.50
2019-02-21T18:36:54.723Z,25.70
2019-02-21T18:37:54.490Z,25.60
2019-02-21T18:39:46.621Z,25.10
2019-02-21T18:40:46.822Z,25.00
2019-02-21T18:42:39.374Z,23.20
2019-02-21T18:43:39.160Z,25.40
2019-02-21T18:45:31.290Z,24.20
2019-02-21T18:46:31.478Z,24.80
2019-02-21T18:48:24.075Z,23.00
2019-02-21T18:49:23.626Z,24.20
2019-02-21T18:51:18.733Z,25.00
2019-02-21T18:52:16.191Z,25.60
2019-02-21T18:54:08.721Z,23.30
2019-02-21T18:55:08.291Z,22.40
2019-02-21T18:57:00.852Z,23.40
2019-02-21T18:58:00.815Z,24.80
2019-02-21T18:59:53.393Z,22.20
2019-02-21T19:00:53.161Z,24.20
2019-02-21T19:02:45.560Z,23.80
2019-02-21T19:03:45.513Z,24.30
2019-02-21T19:05:38.059Z,23.70
2019-02-21T19:06:37.894Z,23.10
2019-02-21T19:08:30.768Z,23.10
2019-02-21T19:09:29.987Z,22.90
2019-02-21T19:11:22.537Z,24.20
2019-02-21T19:12:22.565Z,21.80
2019-02-21T19:14:14.652Z,22.10
2019-02-21T19:15:14.678Z,22.80
2019-02-21T19:17:07.468Z,24.00